sensor_id;sensor_type;location;lat;lon;timestamp;temperature;humidity
8591;DHT22;4333;48.322;14.340;2022-10-16T00:01:29;12.50;99.90
8591;DHT22;4333;48.322;14.340;2022-10-16T00:03:59;12.60;99.90
8591;DHT22;4333;48.322;14.340;2022-10-16T00:06:29;12.60;99.90
8591;DHT22;4333;48.322;14.340;2022-10-16T00:08:56;12.50;99.90
8591;DHT22;4333;48.322;14.340;2022-10-16T00:11:34;12.40;99.90
8591;DHT22;4333;48.322;14.340;2022-10-16T00:14:13;12.50;99.90
8591;DHT22;4333;48.322;14.340;2022-10-16T00:16:42;12.50;99.90
8591;DHT22;4333;48.322;14.340;2022-10-16T00:19:10;12.50;99.90
8591;DHT22;4333;48.322;14.340;2022-10-16T00:21:37;12.50;99.90
8591;DHT22;4333;48.322;14.340;2022-10-16T00:24:08;12.60;99.90
8591;DHT22;4333;48.322;14.340;2022-10-16T00:26:36;12.70;99.90
8591;DHT22;4333;48.322;14.340;2022-10-16T00:29:04;12.70;99.90
8591;DHT22;4333;48.322;14.340;2022-10-16T00:31:31;12.70;99.90
8591;DHT22;4333;48.322;14.340;2022-10-16T00:33:58;12.60;99.90
8591;DHT22;4333;48.322;14.340;2022-10-16T00:36:28;12.50;99.90
8591;DHT22;4333;48.322;14.340;2022-10-16T00:38:57;12.50;99.90
8591;DHT22;4333;48.322;14.340;2022-10-16T00:41:29;12.50;99.90
8591;DHT22;4333;48.322;14.340;2022-10-16T00:44:00;12.40;99.90
8591;DHT22;4333;48.322;14.340;2022-10-16T00:49:09;12.40;99.90
8591;DHT22;4333;48.322;14.340;2022-10-16T00:51:39;12.50;99.90
8591;DHT22;4333;48.322;14.340;2022-10-16T00:54:15;12.40;99.90
8591;DHT22;4333;48.322;14.340;2022-10-16T00:56:42;12.30;99.90
8591;DHT22;4333;48.322;14.340;2022-10-16T00:59:18;12.30;99.90
8591;DHT22;4333;48.322;14.340;2022-10-16T01:01:45;12.30;99.90
8591;DHT22;4333;48.322;14.340;2022-10-16T01:04:11;12.30;99.90
8591;DHT22;4333;48.322;14.340;2022-10-16T01:06:50;12.30;99.90
8591;DHT22;4333;48.322;14.340;2022-10-16T01:14:38;12.20;99.90
8591;DHT22;4333;48.322;14.340;2022-10-16T01:17:21;12.20;99.90
8591;DHT22;4333;48.322;14.340;2022-10-16T01:20:06;12.20;99.90
8591;DHT22;4333;48.322;14.340;2022-10-16T01:29:01;12.20;99.90
8591;DHT22;4333;48.322;14.340;2022-10-16T01:31:31;12.20;99.90
8591;DHT22;4333;48.322;14.340;2022-10-16T01:34:03;12.20;99.90
8591;DHT22;4333;48.322;14.340;2022-10-16T01:36:45;12.20;99.90
8591;DHT22;4333;48.322;14.340;2022-10-16T01:39:14;12.10;99.90
8591;DHT22;4333;48.322;14.340;2022-10-16T01:41:52;12.10;99.90
8591;DHT22;4333;48.322;14.340;2022-10-16T01:44:24;12.10;99.90
8591;DHT22;4333;48.322;14.340;2022-10-16T01:46:53;12.10;99.90
8591;DHT22;4333;48.322;14.340;2022-10-16T01:49:24;12.20;99.90
8591;DHT22;4333;48.322;14.340;2022-10-16T01:51:57;12.20;99.90
8591;DHT22;4333;48.322;14.340;2022-10-16T01:54:27;12.30;99.90
8591;DHT22;4333;48.322;14.340;2022-10-16T01:56:55;12.40;99.90
8591;DHT22;4333;48.322;14.340;2022-10-16T01:59:25;12.30;99.90
8591;DHT22;4333;48.322;14.340;2022-10-16T02:02:00;12.30;99.90
8591;DHT22;4333;48.322;14.340;2022-10-16T02:04:43;12.10;99.90
8591;DHT22;4333;48.322;14.340;2022-10-16T02:07:10;12.20;99.90
8591;DHT22;4333;48.322;14.340;2022-10-16T02:09:39;12.10;99.90
8591;DHT22;4333;48.322;14.340;2022-10-16T02:12:15;12.10;99.90
8591;DHT22;4333;48.322;14.340;2022-10-16T02:14:44;12.20;99.90
8591;DHT22;4333;48.322;14.340;2022-10-16T02:17:16;12.30;99.90
8591;DHT22;4333;48.322;14.340;2022-10-16T02:19:43;12.40;99.90
8591;DHT22;4333;48.322;14.340;2022-10-16T02:22:20;12.40;99.90
8591;DHT22;4333;48.322;14.340;2022-10-16T02:27:33;12.20;99.90
8591;DHT22;4333;48.322;14.340;2022-10-16T02:32:46;12.20;99.90
8591;DHT22;4333;48.322;14.340;2022-10-16T02:35:16;12.20;99.90
8591;DHT22;4333;48.322;14.340;2022-10-16T02:37:42;12.20;99.90
8591;DHT22;4333;48.322;14.340;2022-10-16T02:40:11;12.20;99.90
8591;DHT22;4333;48.322;14.340;2022-10-16T02:42:41;12.20;99.90
8591;DHT22;4333;48.322;14.340;2022-10-16T02:45:08;12.20;99.90
8591;DHT22;4333;48.322;14.340;2022-10-16T02:47:38;12.10;99.90
8591;DHT22;4333;48.322;14.340;2022-10-16T02:50:04;12.00;99.90
8591;DHT22;4333;48.322;14.340;2022-10-16T02:52:30;12.00;99.90
8591;DHT22;4333;48.322;14.340;2022-10-16T02:54:56;12.00;99.90
8591;DHT22;4333;48.322;14.340;2022-10-16T02:57:22;12.10;99.90
8591;DHT22;4333;48.322;14.340;2022-10-16T02:59:50;12.20;99.90
8591;DHT22;4333;48.322;14.340;2022-10-16T03:02:16;12.20;99.90
8591;DHT22;4333;48.322;14.340;2022-10-16T03:04:43;12.10;99.90
8591;DHT22;4333;48.322;14.340;2022-10-16T03:07:09;12.10;99.90
8591;DHT22;4333;48.322;14.340;2022-10-16T03:09:37;12.20;99.90
8591;DHT22;4333;48.322;14.340;2022-10-16T03:12:06;12.20;99.90
8591;DHT22;4333;48.322;14.340;2022-10-16T03:14:32;12.30;99.90
8591;DHT22;4333;48.322;14.340;2022-10-16T03:16:58;12.20;99.90
8591;DHT22;4333;48.322;14.340;2022-10-16T03:19:24;12.10;99.90
8591;DHT22;4333;48.322;14.340;2022-10-16T03:21:52;12.10;99.90
8591;DHT22;4333;48.322;14.340;2022-10-16T03:24:18;12.10;99.90
8591;DHT22;4333;48.322;14.340;2022-10-16T03:26:44;12.00;99.90
8591;DHT22;4333;48.322;14.340;2022-10-16T03:29:12;11.90;99.90
8591;DHT22;4333;48.322;14.340;2022-10-16T03:31:38;11.90;99.90
8591;DHT22;4333;48.322;14.340;2022-10-16T03:34:04;11.80;99.90
8591;DHT22;4333;48.322;14.340;2022-10-16T03:36:30;11.70;99.90
8591;DHT22;4333;48.322;14.340;2022-10-16T03:38:56;11.60;99.90
8591;DHT22;4333;48.322;14.340;2022-10-16T03:41:25;11.60;99.90
8591;DHT22;4333;48.322;14.340;2022-10-16T03:43:51;11.50;99.90
8591;DHT22;4333;48.322;14.340;2022-10-16T03:46:19;11.60;99.90
8591;DHT22;4333;48.322;14.340;2022-10-16T03:48:45;11.60;99.90
8591;DHT22;4333;48.322;14.340;2022-10-16T03:51:11;11.60;99.90
8591;DHT22;4333;48.322;14.340;2022-10-16T03:53:39;11.60;99.90
8591;DHT22;4333;48.322;14.340;2022-10-16T03:56:05;11.60;99.90
8591;DHT22;4333;48.322;14.340;2022-10-16T03:58:31;11.60;99.90
8591;DHT22;4333;48.322;14.340;2022-10-16T04:00:57;11.60;99.90
8591;DHT22;4333;48.322;14.340;2022-10-16T04:03:25;11.60;99.90
8591;DHT22;4333;48.322;14.340;2022-10-16T04:05:56;11.60;99.90
8591;DHT22;4333;48.322;14.340;2022-10-16T04:08:22;11.60;99.90
8591;DHT22;4333;48.322;14.340;2022-10-16T04:10:48;11.60;99.90
8591;DHT22;4333;48.322;14.340;2022-10-16T04:13:17;11.60;99.90
8591;DHT22;4333;48.322;14.340;2022-10-16T04:15:44;11.70;99.90
8591;DHT22;4333;48.322;14.340;2022-10-16T04:18:10;11.60;99.90
8591;DHT22;4333;48.322;14.340;2022-10-16T04:20:37;11.60;99.90
8591;DHT22;4333;48.322;14.340;2022-10-16T04:23:03;11.60;99.90
8591;DHT22;4333;48.322;14.340;2022-10-16T04:25:31;11.60;99.90
8591;DHT22;4333;48.322;14.340;2022-10-16T04:27:57;11.60;99.90
8591;DHT22;4333;48.322;14.340;2022-10-16T04:30:23;11.60;99.90
8591;DHT22;4333;48.322;14.340;2022-10-16T04:32:52;11.60;99.90
8591;DHT22;4333;48.322;14.340;2022-10-16T04:35:18;11.70;99.90
8591;DHT22;4333;48.322;14.340;2022-10-16T04:37:44;11.70;99.90
8591;DHT22;4333;48.322;14.340;2022-10-16T04:40:10;11.60;99.90
8591;DHT22;4333;48.322;14.340;2022-10-16T04:42:36;11.70;99.90
8591;DHT22;4333;48.322;14.340;2022-10-16T04:45:08;11.70;99.90
8591;DHT22;4333;48.322;14.340;2022-10-16T04:47:37;11.70;99.90
8591;DHT22;4333;48.322;14.340;2022-10-16T04:50:03;11.70;99.90
8591;DHT22;4333;48.322;14.340;2022-10-16T04:52:29;11.70;99.90
8591;DHT22;4333;48.322;14.340;2022-10-16T04:54:59;11.70;99.90
8591;DHT22;4333;48.322;14.340;2022-10-16T04:57:28;11.70;99.90
8591;DHT22;4333;48.322;14.340;2022-10-16T04:59:54;11.70;99.90
8591;DHT22;4333;48.322;14.340;2022-10-16T05:02:22;11.70;99.90
8591;DHT22;4333;48.322;14.340;2022-10-16T05:04:48;11.70;99.90
8591;DHT22;4333;48.322;14.340;2022-10-16T05:07:16;11.80;99.90
8591;DHT22;4333;48.322;14.340;2022-10-16T05:09:41;11.80;99.90
8591;DHT22;4333;48.322;14.340;2022-10-16T05:12:07;11.80;99.90
8591;DHT22;4333;48.322;14.340;2022-10-16T05:14:33;11.80;99.90
8591;DHT22;4333;48.322;14.340;2022-10-16T05:17:00;11.80;99.90
8591;DHT22;4333;48.322;14.340;2022-10-16T05:19:26;11.80;99.90
8591;DHT22;4333;48.322;14.340;2022-10-16T05:21:55;11.80;99.90
8591;DHT22;4333;48.322;14.340;2022-10-16T05:24:20;11.80;99.90
8591;DHT22;4333;48.322;14.340;2022-10-16T05:26:46;11.70;99.90
8591;DHT22;4333;48.322;14.340;2022-10-16T05:29:12;11.70;99.90
8591;DHT22;4333;48.322;14.340;2022-10-16T05:31:38;11.60;99.90
8591;DHT22;4333;48.322;14.340;2022-10-16T05:34:06;11.60;99.90
8591;DHT22;4333;48.322;14.340;2022-10-16T05:36:32;11.70;99.90
8591;DHT22;4333;48.322;14.340;2022-10-16T05:39:00;11.70;99.90
8591;DHT22;4333;48.322;14.340;2022-10-16T05:41:26;11.70;99.90
8591;DHT22;4333;48.322;14.340;2022-10-16T05:43:52;11.80;99.90
8591;DHT22;4333;48.322;14.340;2022-10-16T05:46:18;11.80;99.90
8591;DHT22;4333;48.322;14.340;2022-10-16T05:48:46;11.80;99.90
8591;DHT22;4333;48.322;14.340;2022-10-16T05:51:14;11.90;99.90
8591;DHT22;4333;48.322;14.340;2022-10-16T05:53:42;11.90;99.90
8591;DHT22;4333;48.322;14.340;2022-10-16T05:56:10;11.90;99.90
8591;DHT22;4333;48.322;14.340;2022-10-16T05:58:39;12.00;99.90
8591;DHT22;4333;48.322;14.340;2022-10-16T06:01:12;12.00;99.90
8591;DHT22;4333;48.322;14.340;2022-10-16T06:03:40;12.00;99.90
8591;DHT22;4333;48.322;14.340;2022-10-16T06:06:13;12.00;99.90
8591;DHT22;4333;48.322;14.340;2022-10-16T06:08:40;12.00;99.90
8591;DHT22;4333;48.322;14.340;2022-10-16T06:11:14;11.90;99.90
8591;DHT22;4333;48.322;14.340;2022-10-16T06:13:42;12.00;99.90
8591;DHT22;4333;48.322;14.340;2022-10-16T06:16:12;12.00;99.90
8591;DHT22;4333;48.322;14.340;2022-10-16T06:18:38;12.10;99.90
8591;DHT22;4333;48.322;14.340;2022-10-16T06:21:11;12.10;99.90
8591;DHT22;4333;48.322;14.340;2022-10-16T06:23:40;12.10;99.90
8591;DHT22;4333;48.322;14.340;2022-10-16T06:26:11;12.10;99.90
8591;DHT22;4333;48.322;14.340;2022-10-16T06:28:37;12.10;99.90
8591;DHT22;4333;48.322;14.340;2022-10-16T06:31:08;12.00;99.90
8591;DHT22;4333;48.322;14.340;2022-10-16T06:33:35;12.00;99.90
8591;DHT22;4333;48.322;14.340;2022-10-16T06:36:09;12.10;99.90
8591;DHT22;4333;48.322;14.340;2022-10-16T06:38:36;12.10;99.90
8591;DHT22;4333;48.322;14.340;2022-10-16T06:41:02;12.10;99.90
8591;DHT22;4333;48.322;14.340;2022-10-16T06:43:32;12.00;99.90
8591;DHT22;4333;48.322;14.340;2022-10-16T06:45:59;11.90;99.90
8591;DHT22;4333;48.322;14.340;2022-10-16T06:48:26;11.90;99.90
8591;DHT22;4333;48.322;14.340;2022-10-16T06:53:30;12.10;99.90
8591;DHT22;4333;48.322;14.340;2022-10-16T06:56:16;12.10;99.90
8591;DHT22;4333;48.322;14.340;2022-10-16T06:58:45;12.30;99.90
8591;DHT22;4333;48.322;14.340;2022-10-16T07:01:12;12.60;99.90
8591;DHT22;4333;48.322;14.340;2022-10-16T07:03:43;13.20;99.90
8591;DHT22;4333;48.322;14.340;2022-10-16T07:06:12;13.70;99.90
8591;DHT22;4333;48.322;14.340;2022-10-16T07:08:39;13.90;99.90
8591;DHT22;4333;48.322;14.340;2022-10-16T07:11:08;14.50;99.90
8591;DHT22;4333;48.322;14.340;2022-10-16T07:13:35;15.10;99.90
8591;DHT22;4333;48.322;14.340;2022-10-16T07:16:10;15.70;99.90
8591;DHT22;4333;48.322;14.340;2022-10-16T07:18:38;16.40;99.90
8591;DHT22;4333;48.322;14.340;2022-10-16T07:21:18;18.20;99.90
8591;DHT22;4333;48.322;14.340;2022-10-16T07:23:52;19.80;99.90
8591;DHT22;4333;48.322;14.340;2022-10-16T07:26:22;20.00;99.90
8591;DHT22;4333;48.322;14.340;2022-10-16T07:28:51;19.30;99.90
8591;DHT22;4333;48.322;14.340;2022-10-16T07:31:21;18.20;99.90
8591;DHT22;4333;48.322;14.340;2022-10-16T07:33:53;16.40;99.90
8591;DHT22;4333;48.322;14.340;2022-10-16T07:36:22;15.30;99.90
8591;DHT22;4333;48.322;14.340;2022-10-16T07:38:49;15.10;99.90
8591;DHT22;4333;48.322;14.340;2022-10-16T07:41:23;15.20;99.90
8591;DHT22;4333;48.322;14.340;2022-10-16T07:44:07;15.50;99.90
8591;DHT22;4333;48.322;14.340;2022-10-16T07:46:53;15.40;99.90
8591;DHT22;4333;48.322;14.340;2022-10-16T07:49:28;15.00;99.90
8591;DHT22;4333;48.322;14.340;2022-10-16T07:51:54;15.10;99.90
8591;DHT22;4333;48.322;14.340;2022-10-16T07:54:28;15.40;99.90
8591;DHT22;4333;48.322;14.340;2022-10-16T07:57:07;15.30;99.90
8591;DHT22;4333;48.322;14.340;2022-10-16T07:59:45;15.30;99.90
8591;DHT22;4333;48.322;14.340;2022-10-16T08:02:28;15.40;99.90
8591;DHT22;4333;48.322;14.340;2022-10-16T08:05:15;15.60;99.90
8591;DHT22;4333;48.322;14.340;2022-10-16T08:07:48;15.60;99.90
8591;DHT22;4333;48.322;14.340;2022-10-16T08:10:24;15.80;99.90
8591;DHT22;4333;48.322;14.340;2022-10-16T08:12:52;15.90;99.90
8591;DHT22;4333;48.322;14.340;2022-10-16T08:15:23;15.70;99.90
8591;DHT22;4333;48.322;14.340;2022-10-16T08:18:02;15.70;99.90
8591;DHT22;4333;48.322;14.340;2022-10-16T08:20:31;16.30;99.90
8591;DHT22;4333;48.322;14.340;2022-10-16T08:22:58;17.40;99.90
8591;DHT22;4333;48.322;14.340;2022-10-16T08:25:25;18.40;99.90
8591;DHT22;4333;48.322;14.340;2022-10-16T08:27:54;19.40;99.90
8591;DHT22;4333;48.322;14.340;2022-10-16T08:30:21;19.90;99.90
8591;DHT22;4333;48.322;14.340;2022-10-16T08:32:47;19.60;99.90
8591;DHT22;4333;48.322;14.340;2022-10-16T08:35:31;20.40;99.90
8591;DHT22;4333;48.322;14.340;2022-10-16T08:37:56;21.10;99.90
8591;DHT22;4333;48.322;14.340;2022-10-16T08:40:24;21.30;99.90
8591;DHT22;4333;48.322;14.340;2022-10-16T08:48:11;19.30;99.90
8591;DHT22;4333;48.322;14.340;2022-10-16T08:50:42;19.10;99.90
8591;DHT22;4333;48.322;14.340;2022-10-16T08:53:33;18.70;99.90
8591;DHT22;4333;48.322;14.340;2022-10-16T08:56:01;18.20;99.90
8591;DHT22;4333;48.322;14.340;2022-10-16T08:58:29;18.20;99.90
8591;DHT22;4333;48.322;14.340;2022-10-16T09:01:03;18.40;99.90
8591;DHT22;4333;48.322;14.340;2022-10-16T09:06:50;18.60;99.90
8591;DHT22;4333;48.322;14.340;2022-10-16T09:13:43;18.60;99.90
8591;DHT22;4333;48.322;14.340;2022-10-16T09:18:48;20.70;99.90
8591;DHT22;4333;48.322;14.340;2022-10-16T09:21:24;22.10;99.90
8591;DHT22;4333;48.322;14.340;2022-10-16T09:23:51;22.10;99.90
8591;DHT22;4333;48.322;14.340;2022-10-16T09:26:17;22.00;99.90
8591;DHT22;4333;48.322;14.340;2022-10-16T09:28:45;21.50;99.90
8591;DHT22;4333;48.322;14.340;2022-10-16T09:31:16;21.30;99.90
8591;DHT22;4333;48.322;14.340;2022-10-16T09:33:44;20.50;99.90
8591;DHT22;4333;48.322;14.340;2022-10-16T09:36:11;19.80;99.90
8591;DHT22;4333;48.322;14.340;2022-10-16T09:38:38;19.70;99.90
8591;DHT22;4333;48.322;14.340;2022-10-16T09:41:21;19.00;99.90
8591;DHT22;4333;48.322;14.340;2022-10-16T09:43:56;18.30;99.90
8591;DHT22;4333;48.322;14.340;2022-10-16T09:46:30;18.10;99.90
8591;DHT22;4333;48.322;14.340;2022-10-16T09:49:02;18.10;99.90
8591;DHT22;4333;48.322;14.340;2022-10-16T09:51:34;18.60;99.90
8591;DHT22;4333;48.322;14.340;2022-10-16T09:54:16;19.50;99.90
8591;DHT22;4333;48.322;14.340;2022-10-16T09:56:48;19.90;99.90
8591;DHT22;4333;48.322;14.340;2022-10-16T09:59:25;19.90;99.90
8591;DHT22;4333;48.322;14.340;2022-10-16T10:01:56;20.20;99.90
8591;DHT22;4333;48.322;14.340;2022-10-16T10:04:42;20.20;99.90
8591;DHT22;4333;48.322;14.340;2022-10-16T10:07:30;20.20;99.90
8591;DHT22;4333;48.322;14.340;2022-10-16T10:10:03;20.50;99.90
8591;DHT22;4333;48.322;14.340;2022-10-16T10:12:42;20.60;99.90
8591;DHT22;4333;48.322;14.340;2022-10-16T10:15:36;21.10;99.90
8591;DHT22;4333;48.322;14.340;2022-10-16T10:18:18;21.50;99.90
8591;DHT22;4333;48.322;14.340;2022-10-16T10:21:00;21.50;99.90
8591;DHT22;4333;48.322;14.340;2022-10-16T10:23:36;21.70;99.90
8591;DHT22;4333;48.322;14.340;2022-10-16T10:32:43;22.00;99.90
8591;DHT22;4333;48.322;14.340;2022-10-16T10:35:44;22.10;99.90
8591;DHT22;4333;48.322;14.340;2022-10-16T10:46:32;22.50;99.90
8591;DHT22;4333;48.322;14.340;2022-10-16T10:54:36;22.90;99.90
8591;DHT22;4333;48.322;14.340;2022-10-16T10:57:29;23.00;99.90
8591;DHT22;4333;48.322;14.340;2022-10-16T11:00:18;22.80;99.90
8591;DHT22;4333;48.322;14.340;2022-10-16T11:03:31;23.10;99.90
8591;DHT22;4333;48.322;14.340;2022-10-16T11:06:11;23.10;99.90
8591;DHT22;4333;48.322;14.340;2022-10-16T11:11:44;22.60;99.90
8591;DHT22;4333;48.322;14.340;2022-10-16T11:14:14;22.60;99.90
8591;DHT22;4333;48.322;14.340;2022-10-16T11:22:32;22.40;99.90
8591;DHT22;4333;48.322;14.340;2022-10-16T11:28:01;22.20;99.90
8591;DHT22;4333;48.322;14.340;2022-10-16T11:30:41;22.00;99.90
8591;DHT22;4333;48.322;14.340;2022-10-16T11:41:48;21.60;99.90
8591;DHT22;4333;48.322;14.340;2022-10-16T11:47:52;22.30;99.90
8591;DHT22;4333;48.322;14.340;2022-10-16T11:50:38;22.90;99.90
8591;DHT22;4333;48.322;14.340;2022-10-16T11:53:45;23.30;99.90
8591;DHT22;4333;48.322;14.340;2022-10-16T11:56:14;23.60;99.90
8591;DHT22;4333;48.322;14.340;2022-10-16T11:58:56;23.80;99.90
8591;DHT22;4333;48.322;14.340;2022-10-16T12:14:45;25.30;98.10
8591;DHT22;4333;48.322;14.340;2022-10-16T12:20:55;25.20;94.90
8591;DHT22;4333;48.322;14.340;2022-10-16T12:23:36;25.50;94.50
8591;DHT22;4333;48.322;14.340;2022-10-16T12:28:48;26.00;93.80
8591;DHT22;4333;48.322;14.340;2022-10-16T12:31:34;26.30;92.60
8591;DHT22;4333;48.322;14.340;2022-10-16T12:34:03;26.20;90.80
8591;DHT22;4333;48.322;14.340;2022-10-16T12:36:42;26.30;91.80
8591;DHT22;4333;48.322;14.340;2022-10-16T12:39:21;26.40;92.70
8591;DHT22;4333;48.322;14.340;2022-10-16T12:42:01;26.40;88.70
8591;DHT22;4333;48.322;14.340;2022-10-16T12:44:36;26.30;91.20
8591;DHT22;4333;48.322;14.340;2022-10-16T12:47:02;25.70;90.80
8591;DHT22;4333;48.322;14.340;2022-10-16T12:51:57;24.10;97.60
8591;DHT22;4333;48.322;14.340;2022-10-16T12:54:34;24.30;97.90
8591;DHT22;4333;48.322;14.340;2022-10-16T13:16:38;25.20;96.80
8591;DHT22;4333;48.322;14.340;2022-10-16T13:22:28;25.20;93.90
8591;DHT22;4333;48.322;14.340;2022-10-16T13:25:27;25.10;97.90
8591;DHT22;4333;48.322;14.340;2022-10-16T13:28:08;24.90;95.30
8591;DHT22;4333;48.322;14.340;2022-10-16T13:30:51;24.70;96.00
8591;DHT22;4333;48.322;14.340;2022-10-16T13:33:33;24.80;97.30
8591;DHT22;4333;48.322;14.340;2022-10-16T13:36:00;25.00;96.00
8591;DHT22;4333;48.322;14.340;2022-10-16T13:38:53;25.20;96.20
8591;DHT22;4333;48.322;14.340;2022-10-16T13:41:45;24.70;95.10
8591;DHT22;4333;48.322;14.340;2022-10-16T13:44:18;24.10;97.10
8591;DHT22;4333;48.322;14.340;2022-10-16T13:46:45;24.00;98.60
8591;DHT22;4333;48.322;14.340;2022-10-16T13:49:16;24.00;97.60
8591;DHT22;4333;48.322;14.340;2022-10-16T13:51:54;24.30;97.70
8591;DHT22;4333;48.322;14.340;2022-10-16T13:54:21;24.70;96.50
8591;DHT22;4333;48.322;14.340;2022-10-16T13:56:47;24.90;93.90
8591;DHT22;4333;48.322;14.340;2022-10-16T13:59:27;25.00;92.50
8591;DHT22;4333;48.322;14.340;2022-10-16T14:01:58;25.10;92.70
8591;DHT22;4333;48.322;14.340;2022-10-16T14:04:32;25.50;92.40
8591;DHT22;4333;48.322;14.340;2022-10-16T14:06:58;25.50;91.70
8591;DHT22;4333;48.322;14.340;2022-10-16T14:09:27;24.90;90.80
8591;DHT22;4333;48.322;14.340;2022-10-16T14:12:08;24.30;91.10
8591;DHT22;4333;48.322;14.340;2022-10-16T14:14:43;23.90;92.10
8591;DHT22;4333;48.322;14.340;2022-10-16T14:17:25;24.10;93.80
8591;DHT22;4333;48.322;14.340;2022-10-16T14:20:03;24.50;92.00
8591;DHT22;4333;48.322;14.340;2022-10-16T14:24:58;25.30;89.50
8591;DHT22;4333;48.322;14.340;2022-10-16T14:27:35;25.20;88.60
8591;DHT22;4333;48.322;14.340;2022-10-16T14:32:34;24.70;90.70
8591;DHT22;4333;48.322;14.340;2022-10-16T14:35:21;24.00;91.70
8591;DHT22;4333;48.322;14.340;2022-10-16T14:38:16;23.90;93.80
8591;DHT22;4333;48.322;14.340;2022-10-16T14:40:57;24.00;94.20
8591;DHT22;4333;48.322;14.340;2022-10-16T14:49:17;24.50;94.60
8591;DHT22;4333;48.322;14.340;2022-10-16T14:51:45;24.60;95.80
8591;DHT22;4333;48.322;14.340;2022-10-16T14:54:13;24.60;98.20
8591;DHT22;4333;48.322;14.340;2022-10-16T14:56:50;24.30;97.30
8591;DHT22;4333;48.322;14.340;2022-10-16T14:59:27;24.10;96.70
8591;DHT22;4333;48.322;14.340;2022-10-16T15:01:54;24.20;99.90
8591;DHT22;4333;48.322;14.340;2022-10-16T15:04:20;23.80;99.90
8591;DHT22;4333;48.322;14.340;2022-10-16T15:06:46;23.40;99.90
8591;DHT22;4333;48.322;14.340;2022-10-16T15:09:11;23.10;99.90
8591;DHT22;4333;48.322;14.340;2022-10-16T15:11:37;22.70;99.90
8591;DHT22;4333;48.322;14.340;2022-10-16T15:14:04;22.50;99.90
8591;DHT22;4333;48.322;14.340;2022-10-16T15:16:30;22.30;99.90
8591;DHT22;4333;48.322;14.340;2022-10-16T15:18:58;22.10;99.90
8591;DHT22;4333;48.322;14.340;2022-10-16T15:21:29;21.80;99.90
8591;DHT22;4333;48.322;14.340;2022-10-16T15:23:55;21.50;99.90
8591;DHT22;4333;48.322;14.340;2022-10-16T15:26:25;21.20;99.90
8591;DHT22;4333;48.322;14.340;2022-10-16T15:28:53;21.10;99.90
8591;DHT22;4333;48.322;14.340;2022-10-16T15:31:19;20.90;99.90
8591;DHT22;4333;48.322;14.340;2022-10-16T15:33:52;20.70;99.90
8591;DHT22;4333;48.322;14.340;2022-10-16T15:36:27;20.50;99.90
8591;DHT22;4333;48.322;14.340;2022-10-16T15:38:54;20.40;99.90
8591;DHT22;4333;48.322;14.340;2022-10-16T15:41:20;20.30;99.90
8591;DHT22;4333;48.322;14.340;2022-10-16T15:43:48;20.30;99.90
8591;DHT22;4333;48.322;14.340;2022-10-16T15:46:15;20.00;99.90
8591;DHT22;4333;48.322;14.340;2022-10-16T15:48:51;19.80;99.90
8591;DHT22;4333;48.322;14.340;2022-10-16T15:51:21;19.90;99.90
8591;DHT22;4333;48.322;14.340;2022-10-16T15:53:46;19.90;99.90
8591;DHT22;4333;48.322;14.340;2022-10-16T15:56:13;20.10;99.90
8591;DHT22;4333;48.322;14.340;2022-10-16T15:58:39;20.10;99.90
8591;DHT22;4333;48.322;14.340;2022-10-16T16:01:06;19.90;99.90
8591;DHT22;4333;48.322;14.340;2022-10-16T16:03:32;19.50;99.90
8591;DHT22;4333;48.322;14.340;2022-10-16T16:05:58;19.20;99.90
8591;DHT22;4333;48.322;14.340;2022-10-16T16:08:28;19.00;99.90
8591;DHT22;4333;48.322;14.340;2022-10-16T16:11:07;18.80;99.90
8591;DHT22;4333;48.322;14.340;2022-10-16T16:13:34;18.70;99.90
8591;DHT22;4333;48.322;14.340;2022-10-16T16:16:16;18.70;99.90
8591;DHT22;4333;48.322;14.340;2022-10-16T16:18:47;18.60;99.90
8591;DHT22;4333;48.322;14.340;2022-10-16T16:21:18;18.60;99.90
8591;DHT22;4333;48.322;14.340;2022-10-16T16:23:47;18.50;99.90
8591;DHT22;4333;48.322;14.340;2022-10-16T16:26:24;18.50;99.90
8591;DHT22;4333;48.322;14.340;2022-10-16T16:29:00;18.40;99.90
8591;DHT22;4333;48.322;14.340;2022-10-16T16:31:38;18.10;99.90
8591;DHT22;4333;48.322;14.340;2022-10-16T16:34:16;18.00;99.90
8591;DHT22;4333;48.322;14.340;2022-10-16T16:36:46;17.90;99.90
8591;DHT22;4333;48.322;14.340;2022-10-16T16:39:23;17.50;99.90
8591;DHT22;4333;48.322;14.340;2022-10-16T16:41:58;17.10;99.90
8591;DHT22;4333;48.322;14.340;2022-10-16T16:44:29;17.20;99.90
8591;DHT22;4333;48.322;14.340;2022-10-16T16:47:03;17.20;99.90
8591;DHT22;4333;48.322;14.340;2022-10-16T16:49:29;17.00;99.90
8591;DHT22;4333;48.322;14.340;2022-10-16T16:52:04;16.80;99.90
8591;DHT22;4333;48.322;14.340;2022-10-16T16:54:41;16.60;99.90
8591;DHT22;4333;48.322;14.340;2022-10-16T16:57:24;16.60;99.90
8591;DHT22;4333;48.322;14.340;2022-10-16T17:00:17;16.60;99.90
8591;DHT22;4333;48.322;14.340;2022-10-16T17:02:52;16.70;99.90
8591;DHT22;4333;48.322;14.340;2022-10-16T17:05:24;16.70;99.90
8591;DHT22;4333;48.322;14.340;2022-10-16T17:08:06;16.70;99.90
8591;DHT22;4333;48.322;14.340;2022-10-16T17:10:43;16.50;99.90
8591;DHT22;4333;48.322;14.340;2022-10-16T17:13:23;16.40;99.90
8591;DHT22;4333;48.322;14.340;2022-10-16T17:15:57;16.40;99.90
8591;DHT22;4333;48.322;14.340;2022-10-16T17:18:37;16.40;99.90
8591;DHT22;4333;48.322;14.340;2022-10-16T17:21:09;16.50;99.90
8591;DHT22;4333;48.322;14.340;2022-10-16T17:23:40;16.50;99.90
8591;DHT22;4333;48.322;14.340;2022-10-16T17:26:22;16.50;99.90
8591;DHT22;4333;48.322;14.340;2022-10-16T17:29:02;16.50;99.90
8591;DHT22;4333;48.322;14.340;2022-10-16T17:31:36;16.50;99.90
8591;DHT22;4333;48.322;14.340;2022-10-16T17:34:07;16.50;99.90
8591;DHT22;4333;48.322;14.340;2022-10-16T17:36:39;16.40;99.90
8591;DHT22;4333;48.322;14.340;2022-10-16T17:39:12;16.20;99.90
8591;DHT22;4333;48.322;14.340;2022-10-16T17:41:47;16.10;99.90
8591;DHT22;4333;48.322;14.340;2022-10-16T17:44:21;15.90;99.90
8591;DHT22;4333;48.322;14.340;2022-10-16T17:46:58;15.90;99.90
8591;DHT22;4333;48.322;14.340;2022-10-16T17:49:29;15.80;99.90
8591;DHT22;4333;48.322;14.340;2022-10-16T17:51:59;15.80;99.90
8591;DHT22;4333;48.322;14.340;2022-10-16T17:54:35;15.70;99.90
8591;DHT22;4333;48.322;14.340;2022-10-16T17:57:07;15.70;99.90
8591;DHT22;4333;48.322;14.340;2022-10-16T17:59:37;15.70;99.90
8591;DHT22;4333;48.322;14.340;2022-10-16T18:02:10;15.60;99.90
8591;DHT22;4333;48.322;14.340;2022-10-16T18:04:37;15.70;99.90
8591;DHT22;4333;48.322;14.340;2022-10-16T18:07:08;15.50;99.90
8591;DHT22;4333;48.322;14.340;2022-10-16T18:09:36;15.40;99.90
8591;DHT22;4333;48.322;14.340;2022-10-16T18:12:10;15.40;99.90
8591;DHT22;4333;48.322;14.340;2022-10-16T18:14:38;15.40;99.90
8591;DHT22;4333;48.322;14.340;2022-10-16T18:17:08;15.30;99.90
8591;DHT22;4333;48.322;14.340;2022-10-16T18:19:37;15.40;99.90
8591;DHT22;4333;48.322;14.340;2022-10-16T18:22:11;15.40;99.90
8591;DHT22;4333;48.322;14.340;2022-10-16T18:24:41;15.40;99.90
8591;DHT22;4333;48.322;14.340;2022-10-16T18:27:09;15.40;99.90
8591;DHT22;4333;48.322;14.340;2022-10-16T18:29:38;15.40;99.90
8591;DHT22;4333;48.322;14.340;2022-10-16T18:32:09;15.40;99.90